Airfield :
LOGIN :

Register | Disclaimer

   EN    FR    IT 

 










Legend :    VFR   Marginal VFR   IFR   Intensive IFR   Very Intensive IFR
Visi :
Ceiling :
>= 8 km
>= 3000ft
5 to 8 km
1000 to 3000 ft
1500m to 5 km
500 to 1000 ft
800 to 1500m
200 to 500 ft
< 800m
< 200 ft
Symbols :   Thunderstorms  Fog  Heavy snow  Heavy precipitations  Wind > 20 kt
SIGMETs :     Misc.  Thunderstorms  Icing  Turbulence  Mountain Waves  Volcanic Ashes






- Airport Elevation : 218 ft


EGYD - RAF Cranwell

CURRENT METAR :
  • 230810Z 17004KT 7000 BR FEW003 SCT030 09/09 Q1005 TEMPO SCT004 RMK WHT TEMPO YLO2

EXPIRED METARs :
  • 230750Z 14004KT 4000 BR BKN003 BKN030 08/08 Q1005 BECMG 9999 NSW SCT012 RMK YLO2 BECMG GRN
  • 230737Z 13003KT 2500 BR BKN001 BKN030 08/08 Q1005 BECMG 9999 NSW SCT008 BKN030 RMK RED BECMG GRN
  • 230650Z 11003KT 1500 BR FEW001 BKN007 BKN012 08/07 Q1005 TEMPO 0600 FG BKN001 RMK AMB TEMPO RED
  • 230550Z 11001KT 2500 RA BKN004 OVC012 07/07 Q1006 TEMPO 4000 -RA YLO2 TEMPO YLO2

TAF AMD TAF EGYD
Valid from the 23 at 07:00 until the 23 at 15:00 UTC


230656Z 2307/2315 15005KT 9999 FEW010 BKN020
TEMPO 2307/2309 6000 -RA FEW004 BKN008
PROB40
TEMPO 2307/2309 3000 -RADZ BKN004
PROB30
TEMPO 2307/2308 0600 FG BKN000
BECMG 2308/2310 24014KT 9999 NSW FEW012 BKN020
TEMPO 2313/2315 6000 -RA SCT012 BKN030
PROB30
TEMPO 2313/2315 22016G26KT



MET'MAP, your aeronautical weather chart ! - Copyright ORBIFLY December 2007 - Disclaimer

ORBIFLY MET'MAP TEAM :

Programming & Development : Alexandra Zaïnal
Concept & original design : Baudouin d'Aumeries
Assistance for programming : Marc-Olivier Méhu
Technical & hardware support : Manuel Goepfert

Contact : metmap@orbifly.com




SOURCES & CREDITS :

   NOAA